sensor_id;sensor_type;location;lat;lon;timestamp;P1;durP1;ratioP1;P2;durP2;ratioP2
13560;SDS011;6852;51.686;5.314;2023-05-07T00:01:37;7.20;;;6.03;;
13560;SDS011;6852;51.686;5.314;2023-05-07T00:04:04;5.97;;;5.37;;
13560;SDS011;6852;51.686;5.314;2023-05-07T00:06:32;6.63;;;5.93;;
13560;SDS011;6852;51.686;5.314;2023-05-07T00:08:59;7.47;;;5.77;;
13560;SDS011;6852;51.686;5.314;2023-05-07T00:11:27;9.43;;;5.83;;
13560;SDS011;6852;51.686;5.314;2023-05-07T00:13:54;6.67;;;5.60;;
13560;SDS011;6852;51.686;5.314;2023-05-07T00:16:21;6.30;;;5.70;;
13560;SDS011;6852;51.686;5.314;2023-05-07T00:18:48;6.13;;;5.63;;
13560;SDS011;6852;51.686;5.314;2023-05-07T00:21:15;8.60;;;5.90;;
13560;SDS011;6852;51.686;5.314;2023-05-07T00:23:42;6.43;;;5.50;;
13560;SDS011;6852;51.686;5.314;2023-05-07T00:26:09;6.63;;;6.03;;
13560;SDS011;6852;51.686;5.314;2023-05-07T00:28:35;7.70;;;5.80;;
13560;SDS011;6852;51.686;5.314;2023-05-07T00:31:02;6.20;;;5.37;;
13560;SDS011;6852;51.686;5.314;2023-05-07T00:33:29;7.00;;;5.60;;
13560;SDS011;6852;51.686;5.314;2023-05-07T00:35:56;5.67;;;5.17;;
13560;SDS011;6852;51.686;5.314;2023-05-07T00:38:23;7.80;;;5.90;;
13560;SDS011;6852;51.686;5.314;2023-05-07T00:40:50;6.30;;;5.70;;
13560;SDS011;6852;51.686;5.314;2023-05-07T00:43:17;5.83;;;5.03;;
13560;SDS011;6852;51.686;5.314;2023-05-07T00:45:44;6.77;;;5.40;;
13560;SDS011;6852;51.686;5.314;2023-05-07T00:48:11;6.10;;;5.50;;
13560;SDS011;6852;51.686;5.314;2023-05-07T00:50:40;6.03;;;5.53;;
13560;SDS011;6852;51.686;5.314;2023-05-07T00:53:07;6.27;;;5.50;;
13560;SDS011;6852;51.686;5.314;2023-05-07T00:55:35;6.97;;;5.60;;
13560;SDS011;6852;51.686;5.314;2023-05-07T00:58:03;6.13;;;5.63;;
13560;SDS011;6852;51.686;5.314;2023-05-07T01:00:30;6.00;;;5.50;;
13560;SDS011;6852;51.686;5.314;2023-05-07T01:02:57;6.30;;;5.70;;
13560;SDS011;6852;51.686;5.314;2023-05-07T01:05:24;6.67;;;5.23;;
13560;SDS011;6852;51.686;5.314;2023-05-07T01:07:54;6.70;;;6.00;;
13560;SDS011;6852;51.686;5.314;2023-05-07T01:10:23;7.33;;;5.47;;
13560;SDS011;6852;51.686;5.314;2023-05-07T01:12:51;6.60;;;6.00;;
13560;SDS011;6852;51.686;5.314;2023-05-07T01:15:18;5.77;;;5.23;;
13560;SDS011;6852;51.686;5.314;2023-05-07T01:17:45;6.20;;;5.70;;
13560;SDS011;6852;51.686;5.314;2023-05-07T01:20:13;6.13;;;5.53;;
13560;SDS011;6852;51.686;5.314;2023-05-07T01:22:40;6.97;;;6.00;;
13560;SDS011;6852;51.686;5.314;2023-05-07T01:25:09;8.83;;;6.10;;
13560;SDS011;6852;51.686;5.314;2023-05-07T01:27:35;6.70;;;6.10;;
13560;SDS011;6852;51.686;5.314;2023-05-07T01:30:04;7.30;;;5.77;;
13560;SDS011;6852;51.686;5.314;2023-05-07T01:32:41;5.80;;;5.30;;
13560;SDS011;6852;51.686;5.314;2023-05-07T01:35:16;6.27;;;5.67;;
13560;SDS011;6852;51.686;5.314;2023-05-07T01:37:48;6.70;;;6.00;;
13560;SDS011;6852;51.686;5.314;2023-05-07T01:40:16;8.20;;;6.53;;
13560;SDS011;6852;51.686;5.314;2023-05-07T01:42:43;6.57;;;5.40;;
13560;SDS011;6852;51.686;5.314;2023-05-07T01:45:11;6.43;;;5.83;;
13560;SDS011;6852;51.686;5.314;2023-05-07T01:47:38;6.50;;;5.67;;
13560;SDS011;6852;51.686;5.314;2023-05-07T01:50:06;6.30;;;5.70;;
13560;SDS011;6852;51.686;5.314;2023-05-07T01:52:37;6.23;;;5.63;;
13560;SDS011;6852;51.686;5.314;2023-05-07T01:55:05;9.00;;;5.77;;
13560;SDS011;6852;51.686;5.314;2023-05-07T01:57:33;6.97;;;6.37;;
13560;SDS011;6852;51.686;5.314;2023-05-07T02:00:00;7.17;;;6.47;;
13560;SDS011;6852;51.686;5.314;2023-05-07T02:02:27;7.83;;;6.33;;
13560;SDS011;6852;51.686;5.314;2023-05-07T02:04:54;7.17;;;6.17;;
13560;SDS011;6852;51.686;5.314;2023-05-07T02:07:21;6.87;;;6.20;;
13560;SDS011;6852;51.686;5.314;2023-05-07T02:09:48;7.53;;;6.83;;
13560;SDS011;6852;51.686;5.314;2023-05-07T02:12:15;8.77;;;7.20;;
13560;SDS011;6852;51.686;5.314;2023-05-07T02:14:41;7.30;;;6.60;;
13560;SDS011;6852;51.686;5.314;2023-05-07T02:17:08;8.30;;;7.37;;
13560;SDS011;6852;51.686;5.314;2023-05-07T02:19:35;7.17;;;6.53;;
13560;SDS011;6852;51.686;5.314;2023-05-07T02:22:02;8.60;;;7.23;;
13560;SDS011;6852;51.686;5.314;2023-05-07T02:24:29;8.10;;;7.33;;
13560;SDS011;6852;51.686;5.314;2023-05-07T02:26:56;9.37;;;7.57;;
13560;SDS011;6852;51.686;5.314;2023-05-07T02:29:23;8.93;;;8.03;;
13560;SDS011;6852;51.686;5.314;2023-05-07T02:31:50;9.53;;;8.27;;
13560;SDS011;6852;51.686;5.314;2023-05-07T02:34:19;8.97;;;8.07;;
13560;SDS011;6852;51.686;5.314;2023-05-07T02:36:46;9.27;;;8.13;;
13560;SDS011;6852;51.686;5.314;2023-05-07T02:39:13;9.67;;;8.20;;
13560;SDS011;6852;51.686;5.314;2023-05-07T02:41:41;9.40;;;8.50;;
13560;SDS011;6852;51.686;5.314;2023-05-07T02:44:08;9.70;;;8.57;;
13560;SDS011;6852;51.686;5.314;2023-05-07T02:46:35;10.33;;;8.93;;
13560;SDS011;6852;51.686;5.314;2023-05-07T02:49:02;9.87;;;8.93;;
13560;SDS011;6852;51.686;5.314;2023-05-07T02:51:29;10.63;;;9.13;;
13560;SDS011;6852;51.686;5.314;2023-05-07T02:53:56;10.27;;;8.83;;
13560;SDS011;6852;51.686;5.314;2023-05-07T02:56:25;10.30;;;9.37;;
13560;SDS011;6852;51.686;5.314;2023-05-07T02:58:53;12.23;;;9.30;;
13560;SDS011;6852;51.686;5.314;2023-05-07T03:01:20;10.17;;;9.00;;
13560;SDS011;6852;51.686;5.314;2023-05-07T03:03:47;10.37;;;8.87;;
13560;SDS011;6852;51.686;5.314;2023-05-07T03:06:14;10.63;;;9.47;;
13560;SDS011;6852;51.686;5.314;2023-05-07T03:08:41;10.67;;;9.43;;
13560;SDS011;6852;51.686;5.314;2023-05-07T03:11:08;10.93;;;9.80;;
13560;SDS011;6852;51.686;5.314;2023-05-07T03:13:35;13.20;;;9.60;;
13560;SDS011;6852;51.686;5.314;2023-05-07T03:16:02;10.73;;;9.63;;
13560;SDS011;6852;51.686;5.314;2023-05-07T03:18:29;11.83;;;10.27;;
13560;SDS011;6852;51.686;5.314;2023-05-07T03:20:56;11.53;;;10.30;;
13560;SDS011;6852;51.686;5.314;2023-05-07T03:23:23;12.73;;;10.97;;
13560;SDS011;6852;51.686;5.314;2023-05-07T03:25:50;10.93;;;9.83;;
13560;SDS011;6852;51.686;5.314;2023-05-07T03:28:17;12.23;;;10.37;;
13560;SDS011;6852;51.686;5.314;2023-05-07T03:30:44;12.63;;;10.13;;
13560;SDS011;6852;51.686;5.314;2023-05-07T03:33:11;12.03;;;10.73;;
13560;SDS011;6852;51.686;5.314;2023-05-07T03:35:37;12.13;;;10.93;;
13560;SDS011;6852;51.686;5.314;2023-05-07T03:38:04;12.07;;;10.73;;
13560;SDS011;6852;51.686;5.314;2023-05-07T03:40:31;11.60;;;10.33;;
13560;SDS011;6852;51.686;5.314;2023-05-07T03:42:59;16.03;;;10.70;;
13560;SDS011;6852;51.686;5.314;2023-05-07T03:45:26;14.07;;;11.10;;
13560;SDS011;6852;51.686;5.314;2023-05-07T03:47:53;13.50;;;11.93;;
13560;SDS011;6852;51.686;5.314;2023-05-07T03:50:20;12.30;;;10.87;;
13560;SDS011;6852;51.686;5.314;2023-05-07T03:52:47;12.33;;;11.07;;
13560;SDS011;6852;51.686;5.314;2023-05-07T03:55:13;14.17;;;11.17;;
13560;SDS011;6852;51.686;5.314;2023-05-07T03:57:40;11.80;;;10.70;;
13560;SDS011;6852;51.686;5.314;2023-05-07T04:00:07;12.50;;;11.27;;
13560;SDS011;6852;51.686;5.314;2023-05-07T04:02:35;12.70;;;11.30;;
13560;SDS011;6852;51.686;5.314;2023-05-07T04:05:03;13.43;;;11.60;;
13560;SDS011;6852;51.686;5.314;2023-05-07T04:07:30;12.90;;;11.50;;
13560;SDS011;6852;51.686;5.314;2023-05-07T04:09:56;12.73;;;11.20;;
13560;SDS011;6852;51.686;5.314;2023-05-07T04:12:23;14.97;;;11.90;;
13560;SDS011;6852;51.686;5.314;2023-05-07T04:14:50;14.93;;;11.77;;
13560;SDS011;6852;51.686;5.314;2023-05-07T04:17:17;15.10;;;12.10;;
13560;SDS011;6852;51.686;5.314;2023-05-07T04:19:44;14.97;;;11.83;;
13560;SDS011;6852;51.686;5.314;2023-05-07T04:22:12;14.60;;;12.63;;
13560;SDS011;6852;51.686;5.314;2023-05-07T04:24:39;13.43;;;11.87;;
13560;SDS011;6852;51.686;5.314;2023-05-07T04:27:05;12.80;;;11.03;;
13560;SDS011;6852;51.686;5.314;2023-05-07T04:29:32;12.83;;;11.63;;
13560;SDS011;6852;51.686;5.314;2023-05-07T04:31:59;13.30;;;11.87;;
13560;SDS011;6852;51.686;5.314;2023-05-07T04:34:26;17.17;;;12.53;;
13560;SDS011;6852;51.686;5.314;2023-05-07T04:36:53;14.13;;;12.23;;
13560;SDS011;6852;51.686;5.314;2023-05-07T04:39:20;15.03;;;12.87;;
13560;SDS011;6852;51.686;5.314;2023-05-07T04:41:47;16.30;;;12.73;;
13560;SDS011;6852;51.686;5.314;2023-05-07T04:44:14;14.63;;;13.23;;
13560;SDS011;6852;51.686;5.314;2023-05-07T04:46:40;14.13;;;12.17;;
13560;SDS011;6852;51.686;5.314;2023-05-07T04:49:07;15.53;;;13.93;;
13560;SDS011;6852;51.686;5.314;2023-05-07T04:51:34;15.90;;;13.47;;
13560;SDS011;6852;51.686;5.314;2023-05-07T04:54:01;16.80;;;13.03;;
13560;SDS011;6852;51.686;5.314;2023-05-07T04:56:28;15.13;;;12.23;;
13560;SDS011;6852;51.686;5.314;2023-05-07T04:58:58;14.90;;;13.27;;
13560;SDS011;6852;51.686;5.314;2023-05-07T05:01:25;14.77;;;13.30;;
13560;SDS011;6852;51.686;5.314;2023-05-07T05:03:52;16.60;;;13.80;;
13560;SDS011;6852;51.686;5.314;2023-05-07T05:06:19;14.77;;;13.30;;
13560;SDS011;6852;51.686;5.314;2023-05-07T05:08:46;15.43;;;13.87;;
13560;SDS011;6852;51.686;5.314;2023-05-07T05:11:12;15.07;;;13.20;;
13560;SDS011;6852;51.686;5.314;2023-05-07T05:13:39;16.53;;;14.73;;
13560;SDS011;6852;51.686;5.314;2023-05-07T05:16:06;15.50;;;13.97;;
13560;SDS011;6852;51.686;5.314;2023-05-07T05:18:33;15.60;;;13.87;;
13560;SDS011;6852;51.686;5.314;2023-05-07T05:21:00;15.37;;;13.73;;
13560;SDS011;6852;51.686;5.314;2023-05-07T05:23:27;21.40;;;15.83;;
13560;SDS011;6852;51.686;5.314;2023-05-07T05:25:57;16.73;;;14.67;;
13560;SDS011;6852;51.686;5.314;2023-05-07T05:28:24;15.90;;;14.30;;
13560;SDS011;6852;51.686;5.314;2023-05-07T05:30:51;16.37;;;14.57;;
13560;SDS011;6852;51.686;5.314;2023-05-07T05:33:18;16.50;;;14.77;;
13560;SDS011;6852;51.686;5.314;2023-05-07T05:35:45;16.80;;;15.13;;
13560;SDS011;6852;51.686;5.314;2023-05-07T05:38:12;18.50;;;15.57;;
13560;SDS011;6852;51.686;5.314;2023-05-07T05:40:39;18.10;;;16.07;;
13560;SDS011;6852;51.686;5.314;2023-05-07T05:43:06;17.87;;;16.00;;
13560;SDS011;6852;51.686;5.314;2023-05-07T05:45:33;20.00;;;15.70;;
13560;SDS011;6852;51.686;5.314;2023-05-07T05:48:00;18.23;;;16.33;;
13560;SDS011;6852;51.686;5.314;2023-05-07T05:50:27;18.27;;;16.37;;
13560;SDS011;6852;51.686;5.314;2023-05-07T05:52:54;20.37;;;16.70;;
13560;SDS011;6852;51.686;5.314;2023-05-07T05:55:20;19.40;;;17.17;;
13560;SDS011;6852;51.686;5.314;2023-05-07T05:57:48;19.27;;;17.27;;
13560;SDS011;6852;51.686;5.314;2023-05-07T06:00:15;20.20;;;17.33;;
13560;SDS011;6852;51.686;5.314;2023-05-07T06:02:42;19.80;;;17.70;;
13560;SDS011;6852;51.686;5.314;2023-05-07T06:05:09;20.67;;;18.03;;
13560;SDS011;6852;51.686;5.314;2023-05-07T06:07:36;21.73;;;19.13;;
13560;SDS011;6852;51.686;5.314;2023-05-07T06:10:03;21.50;;;18.73;;
13560;SDS011;6852;51.686;5.314;2023-05-07T06:12:31;21.90;;;19.53;;
13560;SDS011;6852;51.686;5.314;2023-05-07T06:14:58;20.93;;;18.80;;
13560;SDS011;6852;51.686;5.314;2023-05-07T06:17:25;22.67;;;19.77;;
13560;SDS011;6852;51.686;5.314;2023-05-07T06:19:51;23.00;;;20.40;;
13560;SDS011;6852;51.686;5.314;2023-05-07T06:22:18;23.73;;;20.20;;
13560;SDS011;6852;51.686;5.314;2023-05-07T06:24:46;22.43;;;20.07;;
13560;SDS011;6852;51.686;5.314;2023-05-07T06:27:13;22.70;;;20.30;;
13560;SDS011;6852;51.686;5.314;2023-05-07T06:29:39;22.20;;;19.10;;
13560;SDS011;6852;51.686;5.314;2023-05-07T06:32:07;21.73;;;19.43;;
13560;SDS011;6852;51.686;5.314;2023-05-07T06:34:38;21.67;;;19.50;;
13560;SDS011;6852;51.686;5.314;2023-05-07T06:37:06;24.17;;;19.00;;
13560;SDS011;6852;51.686;5.314;2023-05-07T06:39:33;22.53;;;19.47;;
13560;SDS011;6852;51.686;5.314;2023-05-07T06:42:00;22.07;;;19.60;;
13560;SDS011;6852;51.686;5.314;2023-05-07T06:44:28;20.80;;;18.70;;
13560;SDS011;6852;51.686;5.314;2023-05-07T06:46:55;24.97;;;20.57;;
13560;SDS011;6852;51.686;5.314;2023-05-07T06:49:22;22.70;;;20.40;;
13560;SDS011;6852;51.686;5.314;2023-05-07T06:51:49;22.40;;;19.87;;
13560;SDS011;6852;51.686;5.314;2023-05-07T06:54:16;22.77;;;19.23;;
13560;SDS011;6852;51.686;5.314;2023-05-07T06:56:43;23.47;;;20.37;;
13560;SDS011;6852;51.686;5.314;2023-05-07T06:59:09;23.43;;;19.67;;
13560;SDS011;6852;51.686;5.314;2023-05-07T07:01:36;22.63;;;19.33;;
13560;SDS011;6852;51.686;5.314;2023-05-07T07:04:03;23.80;;;19.93;;
13560;SDS011;6852;51.686;5.314;2023-05-07T07:06:30;24.50;;;19.23;;
13560;SDS011;6852;51.686;5.314;2023-05-07T07:08:58;21.67;;;19.57;;
13560;SDS011;6852;51.686;5.314;2023-05-07T07:11:26;20.67;;;18.47;;
13560;SDS011;6852;51.686;5.314;2023-05-07T07:13:53;21.80;;;19.00;;
13560;SDS011;6852;51.686;5.314;2023-05-07T07:16:21;21.87;;;19.63;;
13560;SDS011;6852;51.686;5.314;2023-05-07T07:18:48;21.47;;;19.23;;
13560;SDS011;6852;51.686;5.314;2023-05-07T07:21:15;22.87;;;18.97;;
13560;SDS011;6852;51.686;5.314;2023-05-07T07:23:42;22.77;;;19.13;;
13560;SDS011;6852;51.686;5.314;2023-05-07T07:26:09;21.87;;;19.70;;
13560;SDS011;6852;51.686;5.314;2023-05-07T07:28:41;21.53;;;19.10;;
13560;SDS011;6852;51.686;5.314;2023-05-07T07:31:12;22.17;;;19.02;;
13560;SDS011;6852;51.686;5.314;2023-05-07T07:33:39;21.23;;;18.93;;
13560;SDS011;6852;51.686;5.314;2023-05-07T07:36:06;22.10;;;19.90;;
13560;SDS011;6852;51.686;5.314;2023-05-07T07:38:34;21.07;;;18.87;;
13560;SDS011;6852;51.686;5.314;2023-05-07T07:41:01;20.60;;;18.03;;
13560;SDS011;6852;51.686;5.314;2023-05-07T07:43:28;20.97;;;18.57;;
13560;SDS011;6852;51.686;5.314;2023-05-07T07:45:55;20.27;;;18.17;;
13560;SDS011;6852;51.686;5.314;2023-05-07T07:48:22;21.60;;;18.37;;
13560;SDS011;6852;51.686;5.314;2023-05-07T07:50:49;18.47;;;16.47;;
13560;SDS011;6852;51.686;5.314;2023-05-07T07:53:17;20.37;;;18.23;;
13560;SDS011;6852;51.686;5.314;2023-05-07T07:55:44;18.60;;;16.40;;
13560;SDS011;6852;51.686;5.314;2023-05-07T07:58:11;19.20;;;17.00;;
13560;SDS011;6852;51.686;5.314;2023-05-07T08:00:38;19.33;;;17.20;;
13560;SDS011;6852;51.686;5.314;2023-05-07T08:03:05;21.23;;;17.87;;
13560;SDS011;6852;51.686;5.314;2023-05-07T08:05:35;20.27;;;17.47;;
13560;SDS011;6852;51.686;5.314;2023-05-07T08:08:02;18.50;;;16.50;;
13560;SDS011;6852;51.686;5.314;2023-05-07T08:10:29;19.53;;;17.43;;
13560;SDS011;6852;51.686;5.314;2023-05-07T08:13:00;19.27;;;16.60;;
13560;SDS011;6852;51.686;5.314;2023-05-07T08:15:30;19.00;;;16.30;;
13560;SDS011;6852;51.686;5.314;2023-05-07T08:17:57;17.73;;;15.87;;
13560;SDS011;6852;51.686;5.314;2023-05-07T08:20:26;19.27;;;16.13;;
13560;SDS011;6852;51.686;5.314;2023-05-07T08:22:54;19.70;;;16.67;;
13560;SDS011;6852;51.686;5.314;2023-05-07T08:25:21;18.40;;;15.83;;
13560;SDS011;6852;51.686;5.314;2023-05-07T08:27:48;18.70;;;16.07;;
13560;SDS011;6852;51.686;5.314;2023-05-07T08:30:15;17.37;;;15.57;;
13560;SDS011;6852;51.686;5.314;2023-05-07T08:32:42;18.50;;;16.63;;
13560;SDS011;6852;51.686;5.314;2023-05-07T08:35:08;17.50;;;15.40;;
13560;SDS011;6852;51.686;5.314;2023-05-07T08:37:36;17.10;;;15.00;;
13560;SDS011;6852;51.686;5.314;2023-05-07T08:40:02;16.80;;;14.90;;
13560;SDS011;6852;51.686;5.314;2023-05-07T08:42:37;17.13;;;14.93;;
13560;SDS011;6852;51.686;5.314;2023-05-07T08:45:09;15.83;;;14.33;;
13560;SDS011;6852;51.686;5.314;2023-05-07T08:47:43;16.07;;;14.37;;
13560;SDS011;6852;51.686;5.314;2023-05-07T08:50:12;15.73;;;13.97;;
13560;SDS011;6852;51.686;5.314;2023-05-07T08:52:40;15.23;;;13.73;;
13560;SDS011;6852;51.686;5.314;2023-05-07T08:55:07;13.80;;;12.43;;
13560;SDS011;6852;51.686;5.314;2023-05-07T08:57:36;15.83;;;13.73;;
13560;SDS011;6852;51.686;5.314;2023-05-07T09:00:05;14.93;;;13.13;;
13560;SDS011;6852;51.686;5.314;2023-05-07T09:02:36;15.03;;;13.53;;
13560;SDS011;6852;51.686;5.314;2023-05-07T09:05:03;14.47;;;12.97;;
13560;SDS011;6852;51.686;5.314;2023-05-07T09:07:30;14.53;;;13.07;;
13560;SDS011;6852;51.686;5.314;2023-05-07T09:09:57;14.20;;;12.80;;
13560;SDS011;6852;51.686;5.314;2023-05-07T09:12:25;15.03;;;13.43;;
13560;SDS011;6852;51.686;5.314;2023-05-07T09:14:52;15.50;;;13.90;;
13560;SDS011;6852;51.686;5.314;2023-05-07T09:17:19;14.23;;;12.83;;
13560;SDS011;6852;51.686;5.314;2023-05-07T09:19:46;14.63;;;13.23;;
13560;SDS011;6852;51.686;5.314;2023-05-07T09:22:13;15.47;;;13.93;;
13560;SDS011;6852;51.686;5.314;2023-05-07T09:24:40;14.97;;;13.30;;
13560;SDS011;6852;51.686;5.314;2023-05-07T09:27:12;13.67;;;12.20;;
13560;SDS011;6852;51.686;5.314;2023-05-07T09:29:40;14.60;;;13.20;;
13560;SDS011;6852;51.686;5.314;2023-05-07T09:32:08;13.53;;;12.13;;
13560;SDS011;6852;51.686;5.314;2023-05-07T09:34:35;13.07;;;11.80;;
13560;SDS011;6852;51.686;5.314;2023-05-07T09:37:02;13.30;;;11.90;;
13560;SDS011;6852;51.686;5.314;2023-05-07T09:42:08;13.63;;;12.13;;
13560;SDS011;6852;51.686;5.314;2023-05-07T09:44:35;13.87;;;12.47;;
13560;SDS011;6852;51.686;5.314;2023-05-07T09:47:04;12.17;;;10.93;;
13560;SDS011;6852;51.686;5.314;2023-05-07T09:49:33;12.53;;;11.27;;
13560;SDS011;6852;51.686;5.314;2023-05-07T09:52:03;12.53;;;11.33;;
13560;SDS011;6852;51.686;5.314;2023-05-07T09:54:36;13.23;;;11.77;;
13560;SDS011;6852;51.686;5.314;2023-05-07T09:57:06;15.13;;;12.47;;
13560;SDS011;6852;51.686;5.314;2023-05-07T09:59:36;12.87;;;11.47;;
13560;SDS011;6852;51.686;5.314;2023-05-07T10:02:04;13.67;;;12.23;;
13560;SDS011;6852;51.686;5.314;2023-05-07T10:04:32;15.03;;;11.97;;
13560;SDS011;6852;51.686;5.314;2023-05-07T10:07:00;13.53;;;12.20;;
13560;SDS011;6852;51.686;5.314;2023-05-07T10:09:27;12.83;;;11.50;;
13560;SDS011;6852;51.686;5.314;2023-05-07T10:11:55;14.50;;;12.03;;
13560;SDS011;6852;51.686;5.314;2023-05-07T10:14:23;13.33;;;11.90;;
13560;SDS011;6852;51.686;5.314;2023-05-07T10:16:51;13.23;;;11.93;;
13560;SDS011;6852;51.686;5.314;2023-05-07T10:19:19;13.90;;;12.50;;
13560;SDS011;6852;51.686;5.314;2023-05-07T10:21:51;14.47;;;12.97;;
13560;SDS011;6852;51.686;5.314;2023-05-07T10:24:26;13.43;;;12.03;;
13560;SDS011;6852;51.686;5.314;2023-05-07T10:26:57;14.30;;;12.03;;
13560;SDS011;6852;51.686;5.314;2023-05-07T10:34:48;13.47;;;12.17;;
13560;SDS011;6852;51.686;5.314;2023-05-07T10:37:19;13.80;;;12.37;;
13560;SDS011;6852;51.686;5.314;2023-05-07T10:39:46;12.87;;;11.43;;
13560;SDS011;6852;51.686;5.314;2023-05-07T10:42:14;13.80;;;11.60;;
13560;SDS011;6852;51.686;5.314;2023-05-07T10:44:41;13.20;;;10.73;;
13560;SDS011;6852;51.686;5.314;2023-05-07T10:47:08;12.33;;;11.13;;
13560;SDS011;6852;51.686;5.314;2023-05-07T10:54:47;13.07;;;11.70;;
13560;SDS011;6852;51.686;5.314;2023-05-07T10:57:34;14.13;;;11.60;;
13560;SDS011;6852;51.686;5.314;2023-05-07T11:05:28;11.40;;;10.27;;
13560;SDS011;6852;51.686;5.314;2023-05-07T11:07:57;12.70;;;11.47;;
13560;SDS011;6852;51.686;5.314;2023-05-07T11:13:14;11.57;;;10.47;;
13560;SDS011;6852;51.686;5.314;2023-05-07T11:15:46;12.10;;;10.80;;
13560;SDS011;6852;51.686;5.314;2023-05-07T11:18:15;11.50;;;10.17;;
13560;SDS011;6852;51.686;5.314;2023-05-07T11:20:46;13.03;;;11.20;;
13560;SDS011;6852;51.686;5.314;2023-05-07T11:26:00;12.33;;;11.17;;
13560;SDS011;6852;51.686;5.314;2023-05-07T11:28:29;12.00;;;10.80;;
13560;SDS011;6852;51.686;5.314;2023-05-07T11:30:57;13.23;;;11.83;;
13560;SDS011;6852;51.686;5.314;2023-05-07T11:33:24;13.03;;;11.57;;
13560;SDS011;6852;51.686;5.314;2023-05-07T11:35:53;13.10;;;11.80;;
13560;SDS011;6852;51.686;5.314;2023-05-07T11:38:20;12.47;;;11.20;;
13560;SDS011;6852;51.686;5.314;2023-05-07T11:43:17;12.10;;;10.40;;
13560;SDS011;6852;51.686;5.314;2023-05-07T11:45:45;11.20;;;10.10;;
13560;SDS011;6852;51.686;5.314;2023-05-07T11:48:13;11.00;;;9.77;;
13560;SDS011;6852;51.686;5.314;2023-05-07T11:53:40;12.33;;;9.47;;
13560;SDS011;6852;51.686;5.314;2023-05-07T11:56:08;10.93;;;9.80;;
13560;SDS011;6852;51.686;5.314;2023-05-07T11:58:36;11.20;;;10.10;;
13560;SDS011;6852;51.686;5.314;2023-05-07T12:01:03;10.43;;;9.00;;
13560;SDS011;6852;51.686;5.314;2023-05-07T12:03:33;10.00;;;8.97;;
13560;SDS011;6852;51.686;5.314;2023-05-07T12:06:01;10.03;;;9.03;;
13560;SDS011;6852;51.686;5.314;2023-05-07T12:08:28;12.07;;;9.30;;
13560;SDS011;6852;51.686;5.314;2023-05-07T12:10:56;9.53;;;8.60;;
13560;SDS011;6852;51.686;5.314;2023-05-07T12:13:23;10.60;;;8.70;;
13560;SDS011;6852;51.686;5.314;2023-05-07T12:15:52;11.30;;;10.20;;
13560;SDS011;6852;51.686;5.314;2023-05-07T12:18:20;12.43;;;11.20;;
13560;SDS011;6852;51.686;5.314;2023-05-07T12:20:48;10.80;;;9.67;;
13560;SDS011;6852;51.686;5.314;2023-05-07T12:23:16;10.70;;;9.40;;
13560;SDS011;6852;51.686;5.314;2023-05-07T12:25:44;10.83;;;9.73;;
13560;SDS011;6852;51.686;5.314;2023-05-07T12:28:14;9.97;;;8.93;;
13560;SDS011;6852;51.686;5.314;2023-05-07T12:30:43;10.03;;;9.03;;
13560;SDS011;6852;51.686;5.314;2023-05-07T12:33:11;9.27;;;8.27;;
13560;SDS011;6852;51.686;5.314;2023-05-07T12:35:42;11.40;;;10.27;;
13560;SDS011;6852;51.686;5.314;2023-05-07T12:38:11;11.60;;;10.43;;
13560;SDS011;6852;51.686;5.314;2023-05-07T12:40:42;10.70;;;9.73;;
13560;SDS011;6852;51.686;5.314;2023-05-07T12:43:21;10.83;;;9.43;;
13560;SDS011;6852;51.686;5.314;2023-05-07T12:45:52;11.70;;;10.23;;
13560;SDS011;6852;51.686;5.314;2023-05-07T12:48:21;13.00;;;10.93;;
13560;SDS011;6852;51.686;5.314;2023-05-07T12:50:51;10.00;;;9.00;;
13560;SDS011;6852;51.686;5.314;2023-05-07T12:53:20;10.47;;;9.37;;
13560;SDS011;6852;51.686;5.314;2023-05-07T12:55:49;10.87;;;9.30;;
13560;SDS011;6852;51.686;5.314;2023-05-07T12:58:19;10.23;;;8.33;;
13560;SDS011;6852;51.686;5.314;2023-05-07T13:00:49;8.13;;;7.43;;
13560;SDS011;6852;51.686;5.314;2023-05-07T13:03:24;9.70;;;7.90;;
13560;SDS011;6852;51.686;5.314;2023-05-07T13:05:53;9.03;;;8.13;;
13560;SDS011;6852;51.686;5.314;2023-05-07T13:08:31;8.50;;;7.70;;
13560;SDS011;6852;51.686;5.314;2023-05-07T13:11:00;9.33;;;8.40;;
13560;SDS011;6852;51.686;5.314;2023-05-07T13:13:31;9.70;;;8.70;;
13560;SDS011;6852;51.686;5.314;2023-05-07T13:16:00;9.80;;;8.80;;
13560;SDS011;6852;51.686;5.314;2023-05-07T13:18:31;10.93;;;8.77;;
13560;SDS011;6852;51.686;5.314;2023-05-07T13:20:59;9.03;;;8.13;;
13560;SDS011;6852;51.686;5.314;2023-05-07T13:23:27;10.10;;;9.10;;
13560;SDS011;6852;51.686;5.314;2023-05-07T13:25:54;9.43;;;8.50;;
13560;SDS011;6852;51.686;5.314;2023-05-07T13:28:22;10.43;;;9.20;;
13560;SDS011;6852;51.686;5.314;2023-05-07T13:30:50;9.13;;;8.23;;
13560;SDS011;6852;51.686;5.314;2023-05-07T13:33:21;10.17;;;8.97;;
13560;SDS011;6852;51.686;5.314;2023-05-07T13:35:48;9.80;;;8.87;;
13560;SDS011;6852;51.686;5.314;2023-05-07T13:38:14;10.70;;;9.60;;
13560;SDS011;6852;51.686;5.314;2023-05-07T13:40:42;11.43;;;9.73;;
13560;SDS011;6852;51.686;5.314;2023-05-07T13:43:09;12.27;;;10.27;;
13560;SDS011;6852;51.686;5.314;2023-05-07T13:45:36;11.07;;;10.07;;
13560;SDS011;6852;51.686;5.314;2023-05-07T13:48:04;10.63;;;9.63;;
13560;SDS011;6852;51.686;5.314;2023-05-07T13:50:31;10.00;;;9.00;;
13560;SDS011;6852;51.686;5.314;2023-05-07T13:52:58;11.17;;;10.03;;
13560;SDS011;6852;51.686;5.314;2023-05-07T13:55:24;12.17;;;10.90;;
13560;SDS011;6852;51.686;5.314;2023-05-07T13:57:55;12.80;;;11.43;;
13560;SDS011;6852;51.686;5.314;2023-05-07T14:00:26;12.47;;;11.23;;
13560;SDS011;6852;51.686;5.314;2023-05-07T14:02:54;11.93;;;10.33;;
13560;SDS011;6852;51.686;5.314;2023-05-07T14:05:22;11.63;;;10.53;;
13560;SDS011;6852;51.686;5.314;2023-05-07T14:07:51;11.03;;;10.03;;
13560;SDS011;6852;51.686;5.314;2023-05-07T14:10:18;12.97;;;11.50;;
13560;SDS011;6852;51.686;5.314;2023-05-07T14:12:46;13.63;;;11.60;;
13560;SDS011;6852;51.686;5.314;2023-05-07T14:15:13;13.93;;;12.10;;
13560;SDS011;6852;51.686;5.314;2023-05-07T14:17:41;16.50;;;11.10;;
13560;SDS011;6852;51.686;5.314;2023-05-07T14:20:09;10.83;;;8.70;;
13560;SDS011;6852;51.686;5.314;2023-05-07T14:22:37;12.47;;;8.93;;
13560;SDS011;6852;51.686;5.314;2023-05-07T14:25:04;9.60;;;8.60;;
13560;SDS011;6852;51.686;5.314;2023-05-07T14:27:32;10.43;;;7.87;;
13560;SDS011;6852;51.686;5.314;2023-05-07T14:29:59;6.70;;;6.07;;
13560;SDS011;6852;51.686;5.314;2023-05-07T14:32:26;6.27;;;5.37;;
13560;SDS011;6852;51.686;5.314;2023-05-07T14:34:53;8.63;;;6.70;;
13560;SDS011;6852;51.686;5.314;2023-05-07T14:37:21;9.93;;;8.40;;
13560;SDS011;6852;51.686;5.314;2023-05-07T14:39:47;10.47;;;9.37;;
13560;SDS011;6852;51.686;5.314;2023-05-07T14:42:16;10.03;;;9.13;;
13560;SDS011;6852;51.686;5.314;2023-05-07T14:44:43;10.60;;;9.40;;
13560;SDS011;6852;51.686;5.314;2023-05-07T14:47:12;11.10;;;9.73;;
13560;SDS011;6852;51.686;5.314;2023-05-07T14:49:39;12.77;;;10.23;;
13560;SDS011;6852;51.686;5.314;2023-05-07T14:52:07;10.77;;;9.70;;
13560;SDS011;6852;51.686;5.314;2023-05-07T14:54:36;10.70;;;9.47;;
13560;SDS011;6852;51.686;5.314;2023-05-07T14:57:04;15.27;;;10.13;;
13560;SDS011;6852;51.686;5.314;2023-05-07T14:59:33;11.87;;;10.60;;
13560;SDS011;6852;51.686;5.314;2023-05-07T15:02:00;9.30;;;8.23;;
13560;SDS011;6852;51.686;5.314;2023-05-07T15:04:31;7.57;;;6.57;;
13560;SDS011;6852;51.686;5.314;2023-05-07T15:06:58;5.67;;;4.93;;
13560;SDS011;6852;51.686;5.314;2023-05-07T15:09:25;6.40;;;5.10;;
13560;SDS011;6852;51.686;5.314;2023-05-07T15:11:52;7.40;;;4.30;;
13560;SDS011;6852;51.686;5.314;2023-05-07T15:14:19;5.00;;;4.50;;
13560;SDS011;6852;51.686;5.314;2023-05-07T15:16:48;5.17;;;4.67;;